Time;durP1;ratioP1;P1;durP2;ratioP2;P2;SDS_P1;SDS_P2;PMS_P1;PMS_P2;Temp;Humidity;BMP_temperature;BMP_pressure;BME280_temperature;BME280_humidity;BME280_pressure;Samples;Min_cycle;Max_cycle;Signal;HPM_P1;HPM_P2
2023/05/12 00:00:01;;;;;;;6.53;4.50;;;;;;;10.11;100.00;98473.72;4179468;28;20113;-74
2023/05/12 00:02:02;;;;;;;5.15;4.40;;;;;;;10.11;100.00;98485.56;4178110;28;20048;-74
2023/05/12 00:04:02;;;;;;;6.20;4.15;;;;;;;10.09;100.00;98468.56;4177064;28;20032;-74
2023/05/12 00:06:03;;;;;;;6.50;5.03;;;;;;;10.07;100.00;98468.13;4180990;28;20059;-74
2023/05/12 00:08:04;;;;;;;6.63;4.40;;;;;;;10.08;100.00;98479.97;4180289;28;20036;-74
2023/05/12 00:10:05;;;;;;;8.38;4.90;;;;;;;10.06;100.00;98469.31;4182561;28;20472;-74
2023/05/12 00:12:05;;;;;;;6.90;4.78;;;;;;;10.08;100.00;98482.75;4177032;28;20037;-74
2023/05/12 00:14:06;;;;;;;6.70;4.00;;;;;;;10.11;100.00;98473.72;4176255;28;20502;-74
2023/05/12 00:16:06;;;;;;;5.65;4.32;;;;;;;10.07;100.00;98468.13;4175523;28;20028;-74
2023/05/12 00:18:07;;;;;;;5.78;4.70;;;;;;;10.08;100.00;98469.72;4184965;28;20035;-75
2023/05/12 00:20:07;;;;;;;6.78;4.13;;;;;;;10.06;100.00;98474.03;4182864;28;20424;-75
2023/05/12 00:22:08;;;;;;;6.30;4.20;;;;;;;10.09;100.00;98481.56;4177790;28;20032;-75
2023/05/12 00:24:08;;;;;;;6.85;4.28;;;;;;;10.08;100.00;98472.47;4180876;28;20036;-74
2023/05/12 00:26:08;;;;;;;4.95;4.05;;;;;;;10.07;100.00;98470.09;4178630;28;20086;-74
2023/05/12 00:28:09;;;;;;;5.65;3.97;;;;;;;10.06;100.00;98466.53;4185772;28;20031;-75
2023/05/12 00:30:10;;;;;;;6.15;4.35;;;;;;;10.09;100.00;98473.28;4187057;28;20403;-74
2023/05/12 00:32:10;;;;;;;4.75;4.05;;;;;;;10.07;100.00;98468.13;4179284;28;20059;-75
2023/05/12 00:34:11;;;;;;;5.38;4.43;;;;;;;10.10;100.00;98463.84;4174030;28;20412;-75
2023/05/12 00:36:11;;;;;;;9.25;4.13;;;;;;;10.08;100.00;98469.72;4179781;28;20053;-74
2023/05/12 00:38:12;;;;;;;5.10;4.28;;;;;;;10.11;100.00;98476.50;4179348;28;20527;-74
2023/05/12 00:40:12;;;;;;;5.25;4.28;;;;;;;10.06;100.00;98469.31;4183168;28;20041;-74
2023/05/12 00:42:13;;;;;;;5.30;4.43;;;;;;;10.03;100.00;98475.59;4178625;28;20024;-74
2023/05/12 00:44:13;;;;;;;5.95;4.50;;;;;;;10.03;100.00;98472.81;4181334;28;20468;-75
2023/05/12 00:46:14;;;;;;;4.57;4.10;;;;;;;10.05;100.00;98473.25;4189274;28;20024;-74
2023/05/12 00:48:14;;;;;;;5.28;4.50;;;;;;;10.03;100.00;98464.53;4187262;28;20123;-74
2023/05/12 00:50:15;;;;;;;4.28;3.88;;;;;;;10.00;100.00;98470.78;4181644;28;20033;-75
2023/05/12 00:52:16;;;;;;;7.65;4.70;;;;;;;10.00;100.00;98472.75;4187496;28;20373;-74
2023/05/12 00:54:16;;;;;;;6.20;4.05;;;;;;;9.96;100.00;98469.16;4175066;28;20033;-74
2023/05/12 00:56:20;;;;;;;6.05;4.78;;;;;;;9.96;100.00;98463.63;4188386;28;20099;-75
2023/05/12 00:58:21;;;;;;;7.45;5.05;;;;;;;9.97;100.00;98466.03;4187757;28;25093;-74
2023/05/12 01:00:21;;;;;;;5.38;4.57;;;;;;;9.96;100.00;98463.63;4176150;28;20048;-74
2023/05/12 01:02:22;;;;;;;5.00;4.30;;;;;;;9.96;100.00;98463.63;4184239;28;20128;-74
2023/05/12 01:04:22;;;;;;;6.05;4.97;;;;;;;9.97;100.00;98466.03;4186725;28;20069;-74
2023/05/12 01:06:41;;;;;;;6.40;3.72;;;;;;;9.94;100.00;98464.03;4189174;28;20189;-74
2023/05/12 01:08:42;;;;;;;8.18;4.53;;;;;;;9.95;100.00;98473.09;4178911;28;20559;-74
2023/05/12 01:10:43;;;;;;;6.97;3.97;;;;;;;9.94;100.00;98471.53;4187765;28;20181;-74
2023/05/12 01:12:44;;;;;;;6.57;4.18;;;;;;;9.93;100.00;98462.44;4179060;28;20212;-74
2023/05/12 01:14:44;;;;;;;6.25;4.50;;;;;;;9.96;100.00;98466.41;4177536;28;20069;-74
2023/05/12 01:16:52;;;;;;;4.80;4.00;;;;;;;9.96;100.00;98469.16;4181217;28;20527;-74
2023/05/12 01:18:54;;;;;;;8.75;4.30;;;;;;;10.00;100.00;98481.06;4177127;28;20048;-74
2023/05/12 01:20:56;;;;;;;6.10;4.20;;;;;;;10.00;100.00;98476.31;4181275;28;20977;-74
2023/05/12 01:22:57;;;;;;;6.00;4.80;;;;;;;9.95;100.00;98464.81;4177990;28;20049;-74
2023/05/12 01:25:03;;;;;;;7.93;4.22;;;;;;;9.96;100.00;98472.72;4185142;28;20086;-74
2023/05/12 01:27:04;;;;;;;6.32;4.18;;;;;;;9.95;100.00;98467.59;4191604;28;20037;-74
2023/05/12 01:29:06;;;;;;;8.48;4.82;;;;;;;9.95;100.00;98473.91;4179126;28;20040;-74
2023/05/12 01:31:07;;;;;;;6.10;4.77;;;;;;;9.92;100.00;98466.34;4186476;28;20049;-74
2023/05/12 01:33:08;;;;;;;4.80;4.00;;;;;;;9.89;100.00;98475.38;4181758;28;20040;-74
2023/05/12 01:35:09;;;;;;;6.32;4.43;;;;;;;9.88;100.00;98473.00;4183657;28;20424;-75
2023/05/12 01:37:10;;;;;;;5.45;4.20;;;;;;;9.83;100.00;98463.84;4181734;28;20052;-74
2023/05/12 01:39:11;;;;;;;6.47;4.28;;;;;;;9.85;100.00;98474.56;4180672;28;20044;-74
2023/05/12 01:41:11;;;;;;;7.80;5.30;;;;;;;9.82;100.00;98476.06;4188750;28;20047;-74
2023/05/12 01:43:12;;;;;;;5.95;4.65;;;;;;;9.78;100.00;98474.44;4184446;28;20040;-74
2023/05/12 01:45:12;;;;;;;5.38;4.47;;;;;;;9.79;100.00;98473.28;4184033;28;20073;-74
2023/05/12 01:47:14;;;;;;;5.00;4.18;;;;;;;9.79;100.00;98468.53;4185011;28;20079;-74
2023/05/12 01:49:14;;;;;;;6.65;4.88;;;;;;;9.77;100.00;98470.91;4186270;28;20459;-75
2023/05/12 01:51:15;;;;;;;7.07;5.07;;;;;;;9.74;100.00;98466.09;4182456;28;20049;-74
2023/05/12 01:53:15;;;;;;;8.05;5.05;;;;;;;9.71;100.00;98468.81;4180442;28;20056;-74
2023/05/12 01:55:16;;;;;;;6.20;4.60;;;;;;;9.66;100.00;98466.38;4184414;28;20048;-74
2023/05/12 01:57:17;;;;;;;5.63;4.80;;;;;;;9.68;100.00;98472.31;4184392;28;20136;-75
2023/05/12 01:59:17;;;;;;;11.13;4.65;;;;;;;9.65;100.00;98471.09;4183699;28;20037;-74
2023/05/12 02:01:17;;;;;;;7.13;5.25;;;;;;;9.64;100.00;98480.56;4189324;28;20489;-74
2023/05/12 02:03:18;;;;;;;10.13;5.03;;;;;;;9.62;100.00;98468.28;4183808;28;20094;-74
2023/05/12 02:05:18;;;;;;;6.20;4.95;;;;;;;9.61;100.00;98475.00;4182125;28;20048;-74
2023/05/12 02:07:19;;;;;;;6.40;4.53;;;;;;;9.58;100.00;98473.75;4185058;28;20068;-74
2023/05/12 02:09:21;;;;;;;4.32;3.80;;;;;;;9.55;100.00;98474.50;4184199;28;20505;-74
2023/05/12 02:11:22;;;;;;;6.75;4.78;;;;;;;9.52;100.00;98476.03;4184066;28;20889;-74
2023/05/12 02:13:22;;;;;;;7.70;4.72;;;;;;;9.50;100.00;98480.31;4183672;28;20045;-74
2023/05/12 02:15:23;;;;;;;6.22;4.43;;;;;;;9.48;100.00;98479.91;4183418;28;20059;-74
2023/05/12 02:17:23;;;;;;;6.90;4.97;;;;;;;9.42;100.00;98482.19;4182602;28;20500;-74
2023/05/12 02:19:24;;;;;;;5.32;4.47;;;;;;;9.39;100.00;98480.16;4183804;28;20190;-74
2023/05/12 02:21:24;;;;;;;5.63;4.18;;;;;;;9.40;100.00;98483.72;4185198;28;20037;-74
2023/05/12 02:23:25;;;;;;;7.00;4.55;;;;;;;9.37;100.00;98487.22;4185378;28;20455;-74
2023/05/12 02:25:25;;;;;;;4.88;4.00;;;;;;;9.40;100.00;98489.25;4181569;28;20072;-74
2023/05/12 02:27:25;;;;;;;7.22;4.72;;;;;;;9.43;100.00;98499.53;4183844;28;20059;-75
2023/05/12 02:29:26;;;;;;;8.05;4.97;;;;;;;9.39;100.00;98485.69;4183336;28;20064;-75
2023/05/12 02:31:26;;;;;;;8.65;5.20;;;;;;;9.38;100.00;98486.06;4185047;28;20097;-74
2023/05/12 02:33:26;;;;;;;6.72;4.65;;;;;;;9.34;100.00;98493.47;4181689;28;20508;-74
2023/05/12 02:35:27;;;;;;;8.27;5.78;;;;;;;9.31;100.00;98492.25;4183978;28;20164;-74
2023/05/12 02:37:27;;;;;;;6.18;4.78;;;;;;;9.29;100.00;98489.06;4181158;28;20473;-74
2023/05/12 02:39:27;;;;;;;7.68;5.30;;;;;;;9.25;100.00;98490.97;4179061;28;20041;-74
2023/05/12 02:41:28;;;;;;;8.43;5.05;;;;;;;9.20;100.00;98488.53;4182811;28;20028;-74
2023/05/12 02:43:28;;;;;;;7.13;5.45;;;;;;;9.17;100.00;98490.03;4182664;28;20229;-74
2023/05/12 02:45:28;;;;;;;6.60;4.78;;;;;;;9.11;100.00;98488.78;4185542;28;20048;-74
2023/05/12 02:47:31;;;;;;;11.60;5.55;;;;;;;9.07;100.00;98481.59;4185439;28;20103;-74
2023/05/12 02:49:32;;;;;;;5.63;4.82;;;;;;;9.01;100.00;98486.59;4188508;28;20033;-74
2023/05/12 02:51:32;;;;;;;6.20;5.30;;;;;;;9.01;100.00;98483.84;4182059;28;20047;-74
2023/05/12 02:53:32;;;;;;;7.78;4.93;;;;;;;8.92;100.00;98486.06;4180154;28;20385;-74
2023/05/12 02:55:32;;;;;;;8.05;5.07;;;;;;;8.87;100.00;98492.69;4183227;28;20036;-74
2023/05/12 02:57:33;;;;;;;8.77;5.15;;;;;;;8.83;100.00;98482.72;4182996;28;20040;-74
2023/05/12 02:59:33;;;;;;;6.70;5.10;;;;;;;8.77;100.00;98492.47;4180572;28;20132;-74
2023/05/12 03:01:33;;;;;;;6.75;4.38;;;;;;;8.71;100.00;98489.22;4185095;28;20087;-74
2023/05/12 03:03:34;;;;;;;6.07;4.57;;;;;;;8.67;100.00;98486.38;4178103;28;20048;-74
2023/05/12 03:05:34;;;;;;;7.55;4.78;;;;;;;8.60;100.00;98486.25;4186335;28;20053;-74
2023/05/12 03:07:35;;;;;;;6.28;4.85;;;;;;;8.55;100.00;98478.28;4185134;28;20067;-74
2023/05/12 03:09:35;;;;;;;8.88;4.53;;;;;;;8.52;100.00;98486.47;4178937;28;20052;-74
2023/05/12 03:11:35;;;;;;;6.35;4.70;;;;;;;8.48;100.00;98491.94;4182910;28;20036;-74
2023/05/12 03:13:36;;;;;;;7.40;4.43;;;;;;;8.43;100.00;98486.69;4182608;28;20078;-74
2023/05/12 03:15:36;;;;;;;5.93;4.20;;;;;;;8.42;100.00;98480.38;4179631;28;20114;-74
2023/05/12 03:17:36;;;;;;;5.32;4.43;;;;;;;8.37;100.00;98482.66;4183836;28;20073;-74
2023/05/12 03:19:37;;;;;;;7.88;4.75;;;;;;;8.33;100.00;98487.25;4180571;28;20046;-74
2023/05/12 03:21:37;;;;;;;8.43;4.53;;;;;;;8.34;100.00;98486.09;4184691;28;20051;-74
2023/05/12 03:23:38;;;;;;;5.22;4.22;;;;;;;8.30;100.00;98488.00;4179443;28;20425;-74
2023/05/12 03:25:38;;;;;;;5.63;4.30;;;;;;;8.24;100.00;98495.75;4185993;28;20037;-74
2023/05/12 03:27:38;;;;;;;4.65;4.15;;;;;;;8.19;100.00;98482.22;4183137;28;20547;-74
2023/05/12 03:29:39;;;;;;;4.90;4.18;;;;;;;8.13;100.00;98484.50;4184438;28;20083;-74
2023/05/12 03:31:40;;;;;;;8.93;4.07;;;;;;;8.11;100.00;98481.31;4180618;28;20500;-74
2023/05/12 03:33:40;;;;;;;4.72;4.22;;;;;;;8.07;100.00;98479.63;4182305;28;20429;-74
2023/05/12 03:35:40;;;;;;;5.45;3.95;;;;;;;8.03;100.00;98482.31;4181470;28;20045;-74
2023/05/12 03:37:40;;;;;;;4.45;3.90;;;;;;;8.06;100.00;98491.81;4184213;28;20049;-74
2023/05/12 03:39:41;;;;;;;4.50;3.90;;;;;;;8.00;100.00;98487.75;4181168;28;20389;-74
2023/05/12 03:41:41;;;;;;;8.40;4.55;;;;;;;7.97;100.00;98483.75;4182685;28;20044;-73
2023/05/12 03:43:41;;;;;;;8.27;4.00;;;;;;;7.98;100.00;98490.88;4179543;28;20556;-74
2023/05/12 03:45:42;;;;;;;4.82;4.15;;;;;;;7.99;100.00;98491.66;4178458;28;20136;-74
2023/05/12 03:47:42;;;;;;;4.20;3.80;;;;;;;7.97;100.00;98485.72;4185942;28;20074;-74
2023/05/12 03:49:42;;;;;;;4.13;3.72;;;;;;;7.97;100.00;98496.75;4180535;28;20438;-74
2023/05/12 03:51:43;;;;;;;4.65;4.00;;;;;;;7.93;100.00;98485.63;4178769;28;20048;-74
2023/05/12 03:53:46;;;;;;;7.50;4.38;;;;;;;7.95;100.00;98493.56;4183212;28;20239;-74
2023/05/12 03:55:46;;;;;;;6.63;4.20;;;;;;;7.96;100.00;98498.69;4180708;28;20490;-74
2023/05/12 03:57:47;;;;;;;5.38;4.18;;;;;;;7.97;100.00;98499.50;4184447;28;20227;-74
2023/05/12 03:59:48;;;;;;;5.03;4.18;;;;;;;8.00;100.00;98493.25;4180805;28;20053;-74
2023/05/12 04:01:48;;;;;;;6.47;4.30;;;;;;;8.00;100.00;98494.03;4181962;28;20534;-74
2023/05/12 04:03:48;;;;;;;9.85;4.25;;;;;;;8.04;100.00;98494.94;4179134;28;20127;-74
2023/05/12 04:05:49;;;;;;;6.35;4.18;;;;;;;8.07;100.00;98494.22;4181491;28;20044;-74
2023/05/12 04:07:49;;;;;;;8.20;4.78;;;;;;;8.07;100.00;98496.97;4182690;28;20568;-74
2023/05/12 04:09:50;;;;;;;11.57;5.55;;;;;;;8.11;100.00;98502.56;4181796;28;20041;-74
2023/05/12 04:11:50;;;;;;;14.75;6.25;;;;;;;8.12;100.00;98499.44;4181021;28;20044;-74
2023/05/12 04:13:50;;;;;;;9.55;5.38;;;;;;;8.14;100.00;98499.88;4179892;28;20053;-74
2023/05/12 04:15:54;;;;;;;8.95;5.80;;;;;;;8.16;100.00;98502.25;4182989;28;20044;-73
2023/05/12 04:17:54;;;;;;;9.07;6.03;;;;;;;8.18;100.00;98502.69;4180923;28;20041;-74
2023/05/12 04:19:55;;;;;;;12.50;5.28;;;;;;;8.23;100.00;98505.19;4184417;28;20122;-74
2023/05/12 04:21:55;;;;;;;6.82;5.10;;;;;;;8.24;100.00;98501.25;4183773;28;20388;-74
2023/05/12 04:23:55;;;;;;;5.53;4.43;;;;;;;8.22;100.00;98503.59;4179265;28;20076;-74
2023/05/12 04:25:56;;;;;;;5.97;4.28;;;;;;;8.23;100.00;98499.66;4183094;28;20052;-74
2023/05/12 04:27:56;;;;;;;6.18;4.10;;;;;;;8.22;100.00;98500.81;4181699;28;20090;-74
2023/05/12 04:29:57;;;;;;;5.00;4.50;;;;;;;8.22;100.00;98492.56;4182120;28;20047;-74
2023/05/12 04:31:58;;;;;;;4.97;4.30;;;;;;;8.25;100.00;98502.06;4177054;28;20463;-74
2023/05/12 04:33:59;;;;;;;4.90;4.40;;;;;;;8.30;100.00;98505.31;4176629;28;20131;-74
2023/05/12 04:36:00;;;;;;;6.18;4.63;;;;;;;8.34;100.00;98508.16;4183522;28;20068;-74
2023/05/12 04:38:01;;;;;;;5.18;4.28;;;;;;;8.36;100.00;98508.63;4185337;28;20090;-74
2023/05/12 04:40:01;;;;;;;5.80;4.80;;;;;;;8.41;100.00;98508.31;4179288;28;20167;-75
2023/05/12 04:42:02;;;;;;;5.28;4.30;;;;;;;8.46;100.00;98507.25;4185242;28;20028;-74
2023/05/12 04:44:02;;;;;;;6.20;3.95;;;;;;;8.50;100.00;98508.09;4183859;28;20036;-74
2023/05/12 04:46:03;;;;;;;5.10;4.30;;;;;;;8.53;100.00;98507.41;4180728;28;20085;-74
2023/05/12 04:48:03;;;;;;;6.13;4.40;;;;;;;8.61;100.00;98509.94;4177676;28;20473;-74
2023/05/12 04:50:04;;;;;;;6.22;4.70;;;;;;;8.63;100.00;98510.34;4183895;28;20086;-75
2023/05/12 04:52:05;;;;;;;4.65;3.90;;;;;;;8.68;100.00;98506.50;4185064;28;20058;-74
2023/05/12 04:54:05;;;;;;;6.03;4.32;;;;;;;8.70;100.00;98513.25;4181917;28;20036;-75
2023/05/12 04:56:06;;;;;;;6.57;4.50;;;;;;;8.75;100.00;98516.88;4182760;28;20416;-74
2023/05/12 04:58:06;;;;;;;6.45;4.63;;;;;;;8.77;100.00;98512.59;4183003;28;20356;-74
2023/05/12 05:00:07;;;;;;;5.95;4.50;;;;;;;8.81;100.00;98509.91;4184844;28;20071;-75
2023/05/12 05:02:08;;;;;;;6.10;4.65;;;;;;;8.85;100.00;98508.78;4186613;28;20033;-75
2023/05/12 05:04:09;;;;;;;6.63;5.32;;;;;;;8.90;100.00;98502.19;4181596;28;20488;-74
2023/05/12 05:06:09;;;;;;;6.25;5.07;;;;;;;8.97;100.00;98514.16;4168622;27;20037;-75
2023/05/12 05:08:09;;;;;;;8.10;5.93;;;;;;;8.97;100.00;98507.84;4184382;28;20123;-74
2023/05/12 05:10:10;;;;;;;8.00;5.72;;;;;;;9.05;100.00;98514.28;4186063;28;20055;-74
2023/05/12 05:12:10;;;;;;;7.03;5.63;;;;;;;9.08;100.00;98514.34;4181118;28;20036;-74
2023/05/12 05:14:10;;;;;;;7.10;5.90;;;;;;;9.14;100.00;98517.59;4189705;28;20510;-74
2023/05/12 05:16:11;;;;;;;8.18;5.70;;;;;;;9.18;100.00;98522.00;4183897;28;20028;-75
2023/05/12 05:18:11;;;;;;;8.63;5.97;;;;;;;9.20;100.00;98516.94;4180863;28;20485;-74
2023/05/12 05:20:11;;;;;;;9.50;5.65;;;;;;;9.24;100.00;98516.97;4183554;28;20135;-74
2023/05/12 05:22:12;;;;;;;7.10;5.35;;;;;;;9.30;100.00;98523.81;4185681;28;20029;-74
2023/05/12 05:24:12;;;;;;;7.43;6.18;;;;;;;9.36;100.00;98529.81;4182950;28;20033;-74
2023/05/12 05:26:13;;;;;;;7.45;5.90;;;;;;;9.37;100.00;98529.44;4179214;28;20078;-74
2023/05/12 05:28:13;;;;;;;6.55;5.38;;;;;;;9.41;100.00;98526.72;4186624;28;20053;-74
2023/05/12 05:30:13;;;;;;;11.45;6.13;;;;;;;9.45;100.00;98530.38;4186103;28;20056;-74
2023/05/12 05:32:14;;;;;;;7.07;5.63;;;;;;;9.46;100.00;98535.50;4182167;28;20032;-74
2023/05/12 05:34:14;;;;;;;9.73;5.88;;;;;;;9.50;100.00;98533.59;4179734;28;20082;-74
2023/05/12 05:36:15;;;;;;;8.73;6.35;;;;;;;9.52;100.00;98524.97;4184189;28;20101;-74
2023/05/12 05:38:15;;;;;;;7.97;6.38;;;;;;;9.58;100.00;98527.03;4181573;28;20649;-74
2023/05/12 05:40:16;;;;;;;7.90;6.60;;;;;;;9.62;100.00;98524.34;4183909;28;20044;-74
2023/05/12 05:42:17;;;;;;;8.88;6.35;;;;;;;9.70;100.00;98525.25;4182273;28;20499;-74
2023/05/12 05:44:18;;;;;;;8.52;6.57;;;;;;;9.76;100.00;98530.09;4182521;28;20060;-74
2023/05/12 05:46:18;;;;;;;8.35;6.53;;;;;;;9.85;100.00;98533.38;4183979;28;20123;-74
2023/05/12 05:48:18;;;;;;;8.57;5.93;;;;;;;9.93;100.00;98531.53;4181380;28;20530;-74
2023/05/12 05:50:19;;;;;;;7.65;6.38;;;;;;;10.02;100.00;98531.25;4181482;28;20028;-73
2023/05/12 05:52:19;;;;;;;8.30;6.63;;;;;;;10.09;100.00;98534.94;4182688;28;20432;-74
2023/05/12 05:54:22;;;;;;;7.35;6.07;;;;;;;10.17;100.00;98538.56;4181052;28;20496;-73
2023/05/12 05:56:23;;;;;;;8.10;6.13;;;;;;;10.27;100.00;98540.72;4183992;28;20064;-74
2023/05/12 05:58:23;;;;;;;8.57;6.45;;;;;;;10.38;100.00;98543.63;4182357;28;20487;-73
2023/05/12 06:00:23;;;;;;;10.25;6.78;;;;;;;10.47;100.00;98538.59;4182853;28;20040;-74
2023/05/12 06:02:24;;;;;;;13.20;9.90;;;;;;;10.56;100.00;98538.31;4180853;28;20044;-74
2023/05/12 06:04:24;;;;;;;10.60;8.63;;;;;;;10.66;100.00;98548.72;4179960;28;20033;-74
2023/05/12 06:06:24;;;;;;;12.30;7.95;;;;;;;10.71;100.00;98547.59;4180052;28;20470;-73
2023/05/12 06:08:25;;;;;;;9.18;7.18;;;;;;;10.75;100.00;98546.44;4181806;28;20051;-74
2023/05/12 06:10:25;;;;;;;7.90;6.45;;;;;;;10.83;100.00;98547.31;4179971;28;20037;-74
2023/05/12 06:12:25;;;;;;;8.20;6.57;;;;;;;10.88;100.00;98558.06;4184959;28;20539;-74
2023/05/12 06:14:26;;;;;;;10.68;7.05;;;;;;;10.94;100.00;98551.03;4183589;28;20029;-73
2023/05/12 06:16:26;;;;;;;11.85;6.72;;;;;;;10.96;100.00;98549.47;4181573;28;20155;-74
2023/05/12 06:18:26;;;;;;;8.48;6.68;;;;;;;10.99;100.00;98558.97;4182669;28;20251;-74
2023/05/12 06:20:26;;;;;;;7.55;6.25;;;;;;;10.97;100.00;98562.13;4182387;28;20036;-74
2023/05/12 06:22:27;;;;;;;8.32;7.30;;;;;;;10.99;100.00;98553.44;4181807;28;20045;-74
2023/05/12 06:24:27;;;;;;;6.57;5.88;;;;;;;11.06;100.00;98552.72;4185159;28;20040;-73
2023/05/12 06:26:27;;;;;;;8.20;6.38;;;;;;;11.16;100.00;98547.28;4185503;28;20095;-73
2023/05/12 06:28:28;;;;;;;8.23;6.80;;;;;;;11.28;100.00;98548.22;4183566;28;20179;-74
2023/05/12 06:30:28;;;;;;;6.60;5.85;;;;;;;11.36;100.00;98552.66;4178469;28;20179;-74
2023/05/12 06:32:29;;;;;;;5.93;5.15;;;;;;;11.44;100.00;98551.53;4182780;28;20124;-73
2023/05/12 06:34:29;;;;;;;10.40;6.03;;;;;;;11.50;100.00;98550.00;4185107;28;20048;-74
2023/05/12 06:36:30;;;;;;;7.05;6.10;;;;;;;11.54;100.00;98551.63;4183121;28;20090;-73
2023/05/12 06:38:30;;;;;;;6.45;5.40;;;;;;;11.59;100.00;98550.50;4184647;28;20032;-73
2023/05/12 06:40:31;;;;;;;9.27;6.05;;;;;;;11.63;100.00;98551.31;4178322;28;20052;-74
2023/05/12 06:42:31;;;;;;;7.68;6.55;;;;;;;11.71;100.00;98546.63;4182933;28;20033;-74
2023/05/12 06:44:31;;;;;;;10.13;6.57;;;;;;;11.73;100.00;98553.34;4184702;28;20106;-73
2023/05/12 06:46:32;;;;;;;8.35;6.53;;;;;;;11.77;100.00;98542.31;4182780;28;20149;-73
2023/05/12 06:48:32;;;;;;;8.25;5.50;;;;;;;11.84;100.00;98549.94;4181632;28;20120;-74
2023/05/12 06:50:32;;;;;;;7.25;6.15;;;;;;;11.86;100.00;98551.13;4179317;28;20126;-73
2023/05/12 06:52:33;;;;;;;8.40;6.03;;;;;;;11.96;100.00;98553.16;4181672;28;20103;-73
2023/05/12 06:54:33;;;;;;;7.07;5.57;;;;;;;12.03;100.00;98558.78;4180846;28;20047;-73
2023/05/12 06:56:34;;;;;;;9.27;5.85;;;;;;;12.12;100.00;98560.41;4180237;28;20247;-73
2023/05/12 06:58:35;;;;;;;7.55;5.93;;;;;;;12.22;100.00;98563.25;4181303;28;20788;-73
2023/05/12 07:00:35;;;;;;;7.22;5.68;;;;;;;12.25;100.00;98562.50;4180042;28;20040;-73
2023/05/12 07:02:35;;;;;;;7.07;5.90;;;;;;;12.29;100.00;98566.06;4180700;28;20153;-73
2023/05/12 07:04:36;;;;;;;9.90;5.63;;;;;;;12.36;100.00;98568.09;4180402;28;20060;-73
2023/05/12 07:06:36;;;;;;;6.25;5.40;;;;;;;12.46;100.00;98569.34;4181564;28;20597;-73
2023/05/12 07:08:36;;;;;;;6.63;5.93;;;;;;;12.54;100.00;98568.97;4182293;28;20396;-73
2023/05/12 07:10:37;;;;;;;9.80;6.38;;;;;;;12.55;100.00;98575.31;4177757;28;20042;-73
2023/05/12 07:12:38;;;;;;;7.65;5.80;;;;;;;12.57;100.00;98561.84;4177793;28;20307;-73
2023/05/12 07:14:38;;;;;;;7.22;5.45;;;;;;;12.59;100.00;98560.28;4181865;28;20119;-73
2023/05/12 07:16:38;;;;;;;8.27;6.47;;;;;;;12.53;100.00;98561.84;4182109;28;20823;-73
2023/05/12 07:18:39;;;;;;;7.13;6.43;;;;;;;12.57;100.00;98553.53;4180216;28;20016;-73
2023/05/12 07:20:39;;;;;;;6.90;5.63;;;;;;;12.61;100.00;98548.78;4179259;28;20024;-73
2023/05/12 07:22:40;;;;;;;8.20;6.38;;;;;;;12.59;100.00;98562.28;4183020;28;20155;-73
2023/05/12 07:24:40;;;;;;;6.43;5.75;;;;;;;12.67;100.00;98560.31;4184620;28;20051;-73
2023/05/12 07:26:42;;;;;;;7.55;6.13;;;;;;;12.62;100.00;98561.47;4179236;28;20040;-73
2023/05/12 07:28:42;;;;;;;7.40;6.00;;;;;;;12.67;100.00;98560.31;4178738;28;20058;-73
2023/05/12 07:30:42;;;;;;;8.25;6.88;;;;;;;12.75;100.00;98568.28;4180166;28;20107;-73
2023/05/12 07:32:43;;;;;;;8.55;6.50;;;;;;;12.80;100.00;98567.09;4179652;28;20350;-73
2023/05/12 07:34:43;;;;;;;7.97;6.82;;;;;;;12.85;100.00;98558.41;4180935;28;20025;-73
2023/05/12 07:36:44;;;;;;;7.80;6.43;;;;;;;12.91;100.00;98554.88;4178353;28;20439;-73
2023/05/12 07:38:44;;;;;;;7.40;6.57;;;;;;;12.97;100.00;98560.81;4178823;28;20032;-73
2023/05/12 07:40:44;;;;;;;10.43;6.97;;;;;;;13.04;100.00;98562.84;4180115;28;20029;-73
2023/05/12 07:42:45;;;;;;;8.98;6.90;;;;;;;12.97;100.00;98558.03;4179321;28;20106;-73
2023/05/12 07:44:45;;;;;;;9.70;6.82;;;;;;;13.13;100.00;98560.47;4181292;28;20135;-73
2023/05/12 07:46:45;;;;;;;9.65;6.47;;;;;;;13.16;100.00;98557.72;4184399;28;20060;-73
2023/05/12 07:48:46;;;;;;;8.20;6.57;;;;;;;13.19;100.00;98553.34;4176632;28;20037;-73
2023/05/12 07:50:46;;;;;;;12.07;7.25;;;;;;;13.17;100.00;98562.09;4183380;28;20025;-73
2023/05/12 07:52:48;;;;;;;8.90;7.18;;;;;;;13.31;100.00;98555.78;4184826;28;20409;-73
2023/05/12 07:54:49;;;;;;;9.73;7.50;;;;;;;13.30;100.00;98562.53;4183145;28;20414;-73
2023/05/12 07:56:49;;;;;;;7.95;6.82;;;;;;;13.36;100.00;98560.16;4179144;28;20036;-73
2023/05/12 07:58:50;;;;;;;8.98;6.70;;;;;;;13.45;100.00;98561.34;4185076;28;20074;-73
2023/05/12 08:00:50;;;;;;;8.63;6.93;;;;;;;13.51;100.00;98561.78;4181886;28;20082;-73
2023/05/12 08:02:50;;;;;;;10.25;7.15;;;;;;;13.60;100.00;98564.16;4183188;28;20028;-73
2023/05/12 08:04:51;;;;;;;7.95;6.65;;;;;;;13.67;100.00;98558.59;4183046;28;20112;-73
2023/05/12 08:06:51;;;;;;;10.00;6.53;;;;;;;13.75;100.00;98560.19;4182320;28;20296;-73
2023/05/12 08:08:52;;;;;;;8.30;6.55;;;;;;;13.88;100.00;98563.38;4180640;28;20029;-73
2023/05/12 08:10:52;;;;;;;8.48;6.80;;;;;;;13.90;100.00;98561.78;4182337;28;20016;-73
2023/05/12 08:12:52;;;;;;;8.02;6.47;;;;;;;13.89;100.00;98565.75;4180078;28;20520;-74
2023/05/12 08:14:53;;;;;;;8.10;6.80;;;;;;;13.84;100.00;98560.59;4180220;28;20028;-73
2023/05/12 08:16:53;;;;;;;9.65;6.95;;;;;;;13.77;100.00;98569.72;4183026;28;20065;-73
2023/05/12 08:18:53;;;;;;;10.75;7.47;;;;;;;13.81;100.00;98564.16;4177750;28;20028;-73
2023/05/12 08:20:54;;;;;;;7.63;6.82;;;;;;;13.87;100.00;98564.56;4183339;28;20374;-73
2023/05/12 08:22:54;;;;;;;9.00;6.47;;;;;;;13.90;100.00;98564.56;4179219;28;20479;-73
2023/05/12 08:24:54;;;;;;;8.15;6.88;;;;;;;13.97;100.00;98564.53;4178604;28;20300;-73
2023/05/12 08:26:55;;;;;;;9.95;7.55;;;;;;;13.97;100.00;98558.97;4177737;28;20461;-74
2023/05/12 08:28:55;;;;;;;8.25;6.88;;;;;;;14.07;100.00;98571.31;4179614;28;20024;-73
2023/05/12 08:30:56;;;;;;;7.65;6.85;;;;;;;14.17;100.00;98567.72;4181529;28;20704;-73
2023/05/12 08:32:57;;;;;;;8.70;6.93;;;;;;;14.24;100.00;98573.28;4179336;28;20033;-73
2023/05/12 08:34:57;;;;;;;6.82;6.00;;;;;;;14.31;100.00;98573.28;4178556;28;20424;-73
2023/05/12 08:36:57;;;;;;;7.30;6.40;;;;;;;14.33;100.00;98578.44;4180572;28;20209;-73
2023/05/12 08:38:58;;;;;;;8.90;6.70;;;;;;;14.34;100.00;98575.25;4182471;28;20063;-74
2023/05/12 08:41:05;;;;;;;8.70;6.65;;;;;;;14.39;100.00;98576.81;4181444;28;20032;-74
2023/05/12 08:43:14;;;;;;;8.85;7.03;;;;;;;14.39;100.00;98574.03;4179638;28;20194;-74
2023/05/12 08:45:14;;;;;;;8.07;7.22;;;;;;;14.42;100.00;98567.66;4180058;28;20130;-73
2023/05/12 08:47:17;;;;;;;8.52;7.30;;;;;;;14.51;100.00;98575.63;4181553;28;20040;-73
2023/05/12 08:49:20;;;;;;;9.55;6.95;;;;;;;14.56;100.00;98569.63;4178882;28;20024;-73
2023/05/12 08:51:23;;;;;;;8.95;6.47;;;;;;;14.65;100.00;98569.22;4177224;28;20025;-73
2023/05/12 08:53:26;;;;;;;8.05;6.50;;;;;;;14.73;100.00;98570.78;4176843;28;20370;-73
2023/05/12 08:55:27;;;;;;;7.85;6.82;;;;;;;14.79;100.00;98569.16;4181367;28;20407;-73
2023/05/12 08:57:27;;;;;;;11.75;8.02;;;;;;;14.86;100.00;98578.28;4178281;28;20102;-73
2023/05/12 08:59:28;;;;;;;8.93;7.90;;;;;;;14.89;100.00;98573.88;4178930;28;20441;-73
2023/05/12 09:01:29;;;;;;;9.25;7.63;;;;;;;14.93;100.00;98574.69;4177704;28;20032;-73
2023/05/12 09:03:30;;;;;;;9.38;7.55;;;;;;;14.91;100.00;98573.50;4176433;28;20025;-73
2023/05/12 09:05:31;;;;;;;12.02;8.05;;;;;;;15.06;100.00;98573.03;4179653;28;20839;-74
2023/05/12 09:07:32;;;;;;;9.32;8.05;;;;;;;15.18;100.00;98580.13;4179674;28;20427;-73
2023/05/12 09:09:34;;;;;;;9.65;7.75;;;;;;;15.24;100.00;98572.94;4178940;28;20036;-73
2023/05/12 09:11:34;;;;;;;11.13;7.65;;;;;;;15.32;100.00;98579.28;4179512;28;20052;-73
2023/05/12 09:13:44;;;;;;;13.40;7.63;;;;;;;15.16;100.00;98571.41;4179235;28;20027;-73
2023/05/12 09:15:47;;;;;;;10.15;7.80;;;;;;;15.26;100.00;98576.09;4181129;28;20020;-74
2023/05/12 09:17:47;;;;;;;8.88;7.68;;;;;;;15.32;100.00;98577.28;4177459;28;20057;-73
2023/05/12 09:19:48;;;;;;;9.52;7.75;;;;;;;15.38;100.00;98578.41;4179616;28;20032;-73
2023/05/12 09:21:48;;;;;;;8.63;7.72;;;;;;;15.46;100.00;98585.53;4178411;28;20053;-73
2023/05/12 09:23:57;;;;;;;11.95;8.02;;;;;;;15.49;100.00;98566.41;4180332;28;20036;-73